createdAt,value
2019-05-19T00:00:23.729Z,15.43
2019-05-19T00:01:23.498Z,15.48
2019-05-19T00:03:16.444Z,15.40
2019-05-19T00:04:16.338Z,15.40
2019-05-19T00:06:09.256Z,15.48
2019-05-19T00:07:09.305Z,15.49
2019-05-19T00:09:02.359Z,15.38
2019-05-19T00:10:02.203Z,15.48
2019-05-19T00:11:56.603Z,15.38
2019-05-19T00:12:56.539Z,15.40
2019-05-19T00:14:49.559Z,15.34
2019-05-19T00:15:49.641Z,15.34
2019-05-19T00:17:42.237Z,15.19
2019-05-19T00:18:42.133Z,15.22
2019-05-19T00:20:35.460Z,15.28
2019-05-19T00:21:35.304Z,15.20
2019-05-19T00:23:28.217Z,15.25
2019-05-19T00:24:28.139Z,15.22
2019-05-19T00:26:21.210Z,15.27
2019-05-19T00:27:21.245Z,15.15
2019-05-19T00:29:14.143Z,15.04
2019-05-19T00:30:13.943Z,14.97
2019-05-19T00:32:06.924Z,15.04
2019-05-19T00:33:06.835Z,15.03
2019-05-19T00:34:59.756Z,15.07
2019-05-19T00:35:59.720Z,15.03
2019-05-19T00:37:52.768Z,15.03
2019-05-19T00:38:52.640Z,14.86
2019-05-19T00:40:46.383Z,14.87
2019-05-19T00:41:45.942Z,14.83
2019-05-19T00:43:38.777Z,14.83
2019-05-19T00:44:38.631Z,14.91
2019-05-19T00:46:31.859Z,14.93
2019-05-19T00:47:31.683Z,14.86
2019-05-19T00:49:24.366Z,14.85
2019-05-19T00:50:24.239Z,14.82
2019-05-19T00:52:18.046Z,14.86
2019-05-19T00:53:17.855Z,14.80
2019-05-19T00:55:11.689Z,14.63
2019-05-19T00:56:10.852Z,14.41
2019-05-19T00:58:03.861Z,14.53
2019-05-19T00:59:03.637Z,14.53
2019-05-19T01:00:56.577Z,14.56
2019-05-19T01:01:56.559Z,14.60
2019-05-19T01:03:49.671Z,14.57
2019-05-19T01:04:49.641Z,14.54
2019-05-19T01:06:42.784Z,14.44
2019-05-19T01:07:42.606Z,14.39
2019-05-19T01:09:35.440Z,14.19
2019-05-19T01:10:35.555Z,14.23
2019-05-19T01:12:28.247Z,14.29
2019-05-19T01:13:28.353Z,14.23
2019-05-19T01:15:21.544Z,14.20
2019-05-19T01:16:21.157Z,14.30
2019-05-19T01:18:14.213Z,14.35
2019-05-19T01:19:14.237Z,14.27
2019-05-19T01:21:06.950Z,14.38
2019-05-19T01:22:06.824Z,14.35
2019-05-19T01:23:59.805Z,14.36
2019-05-19T01:24:59.661Z,14.36
2019-05-19T01:26:52.816Z,14.39
2019-05-19T01:27:52.770Z,14.34
2019-05-19T01:29:46.766Z,14.39
2019-05-19T01:30:46.673Z,14.36
2019-05-19T01:32:39.559Z,14.24
2019-05-19T01:33:39.298Z,14.23
2019-05-19T01:35:32.239Z,14.16
2019-05-19T01:36:32.237Z,14.08
2019-05-19T01:38:24.953Z,14.05
2019-05-19T01:39:24.918Z,13.91
2019-05-19T01:41:17.809Z,14.02
2019-05-19T01:42:17.629Z,14.05
2019-05-19T01:44:10.833Z,13.93
2019-05-19T01:45:10.645Z,13.94
2019-05-19T01:47:03.786Z,13.87
2019-05-19T01:48:03.384Z,13.84
2019-05-19T01:50:15.074Z,13.69
2019-05-19T01:50:56.824Z,13.61
2019-05-19T01:52:49.291Z,13.50
2019-05-19T01:53:49.141Z,13.59
2019-05-19T01:55:38.947Z,13.57
2019-05-19T01:56:38.948Z,13.66
2019-05-19T01:58:32.025Z,13.68
2019-05-19T01:59:32.351Z,13.54
2019-05-19T02:01:25.637Z,13.66
2019-05-19T02:02:24.958Z,13.71
2019-05-19T02:04:17.859Z,13.68
2019-05-19T02:05:17.768Z,13.66
2019-05-19T02:07:11.473Z,13.71
2019-05-19T02:08:11.177Z,13.69
2019-05-19T02:10:03.857Z,13.55
2019-05-19T02:11:03.703Z,13.57
2019-05-19T02:12:57.202Z,13.75
2019-05-19T02:13:56.808Z,13.73
2019-05-19T02:15:49.704Z,13.79
2019-05-19T02:16:49.696Z,13.68
2019-05-19T02:18:43.430Z,13.53
2019-05-19T02:19:43.433Z,13.55
2019-05-19T02:21:36.336Z,13.66
2019-05-19T02:22:36.147Z,13.71
2019-05-19T02:24:29.065Z,13.73
2019-05-19T02:25:29.022Z,13.71
2019-05-19T02:27:21.977Z,13.72
2019-05-19T02:28:22.249Z,13.71
2019-05-19T02:30:14.857Z,13.53
2019-05-19T02:31:14.585Z,13.38
2019-05-19T02:33:07.876Z,13.50
2019-05-19T02:34:07.842Z,13.54
2019-05-19T02:36:00.601Z,13.39
2019-05-19T02:37:00.500Z,13.47
2019-05-19T02:38:53.654Z,13.25
2019-05-19T02:39:53.511Z,13.27
2019-05-19T02:41:46.433Z,13.19
2019-05-19T02:42:46.371Z,13.07
2019-05-19T02:44:39.346Z,13.25
2019-05-19T02:45:39.287Z,13.17
2019-05-19T02:47:32.070Z,13.31
2019-05-19T02:48:32.037Z,13.29
2019-05-19T02:50:24.898Z,13.32
2019-05-19T02:51:24.742Z,13.29
2019-05-19T02:53:17.811Z,13.32
2019-05-19T02:54:17.630Z,13.29
2019-05-19T02:56:10.775Z,13.32
2019-05-19T02:57:10.547Z,13.32
2019-05-19T02:59:03.937Z,13.36
2019-05-19T03:00:03.567Z,13.47
2019-05-19T03:01:56.457Z,13.36
2019-05-19T03:02:56.308Z,13.24
2019-05-19T03:04:49.912Z,13.32
2019-05-19T03:05:49.760Z,13.22
2019-05-19T03:07:42.599Z,13.24
2019-05-19T03:08:42.551Z,13.27
2019-05-19T03:10:35.592Z,13.24
2019-05-19T03:11:35.591Z,13.28
2019-05-19T03:13:28.530Z,13.13
2019-05-19T03:14:28.399Z,13.19
2019-05-19T03:16:21.669Z,13.04
2019-05-19T03:17:21.599Z,13.16
2019-05-19T03:19:14.962Z,13.22
2019-05-19T03:20:14.671Z,13.32
2019-05-19T03:23:07.438Z,13.50
2019-05-19T03:25:00.437Z,13.51
2019-05-19T03:26:00.178Z,13.48
2019-05-19T03:27:53.021Z,13.53
2019-05-19T03:28:53.041Z,13.54
2019-05-19T03:30:45.657Z,13.54
2019-05-19T03:31:45.671Z,13.55
2019-05-19T03:33:38.564Z,13.71
2019-05-19T03:34:38.495Z,13.62
2019-05-19T03:36:31.441Z,13.80
2019-05-19T03:37:31.406Z,13.84
2019-05-19T03:39:24.140Z,13.84
2019-05-19T03:40:24.070Z,13.84
2019-05-19T03:42:16.900Z,13.83
2019-05-19T03:43:16.818Z,13.88
2019-05-19T03:45:09.798Z,13.86
2019-05-19T03:46:09.513Z,13.88
2019-05-19T03:48:02.629Z,13.76
2019-05-19T03:49:02.559Z,13.68
2019-05-19T03:50:55.605Z,13.75
2019-05-19T03:51:55.332Z,13.68
2019-05-19T03:53:48.245Z,13.83
2019-05-19T03:54:48.171Z,13.76
2019-05-19T03:56:41.186Z,13.98
2019-05-19T03:57:41.022Z,13.94
2019-05-19T03:59:34.283Z,13.98
2019-05-19T04:00:34.142Z,13.99
2019-05-19T04:02:27.136Z,14.08
2019-05-19T04:03:26.859Z,14.06
2019-05-19T04:05:20.123Z,14.26
2019-05-19T04:06:19.913Z,14.27
2019-05-19T04:08:12.744Z,14.45
2019-05-19T04:09:12.681Z,14.53
2019-05-19T04:11:05.990Z,14.54
2019-05-19T04:12:05.999Z,14.74
2019-05-19T04:13:58.954Z,14.80
2019-05-19T04:14:59.016Z,14.74
2019-05-19T04:16:51.816Z,14.79
2019-05-19T04:17:51.829Z,14.86
2019-05-19T04:19:44.714Z,14.97
2019-05-19T04:20:44.505Z,14.97
2019-05-19T04:22:37.293Z,14.83
2019-05-19T04:23:37.480Z,15.00
2019-05-19T04:25:30.462Z,15.04
2019-05-19T04:26:30.244Z,15.11
2019-05-19T04:28:23.317Z,15.22
2019-05-19T04:29:23.229Z,15.16
2019-05-19T04:31:16.072Z,15.20
2019-05-19T04:32:16.066Z,15.23
2019-05-19T04:34:08.869Z,15.23
2019-05-19T04:35:08.833Z,15.28
2019-05-19T04:37:02.631Z,15.48
2019-05-19T04:38:02.480Z,15.49
2019-05-19T04:39:55.612Z,15.58
2019-05-19T04:40:55.660Z,15.76
2019-05-19T04:42:48.346Z,15.81
2019-05-19T04:43:48.389Z,15.86
2019-05-19T04:45:41.412Z,16.03
2019-05-19T04:46:41.381Z,16.18
2019-05-19T04:48:34.076Z,16.25
2019-05-19T04:49:33.973Z,16.37
2019-05-19T04:51:26.916Z,16.52
2019-05-19T04:52:26.896Z,16.57
2019-05-19T04:54:19.733Z,16.72
2019-05-19T04:55:19.712Z,16.81
2019-05-19T04:57:12.591Z,16.62
2019-05-19T04:58:12.953Z,16.72
2019-05-19T05:00:05.485Z,16.80
2019-05-19T05:01:05.168Z,17.09
2019-05-19T05:02:58.257Z,17.71
2019-05-19T05:03:58.227Z,18.69
2019-05-19T05:05:50.998Z,20.68
2019-05-19T05:06:50.979Z,21.27
2019-05-19T05:08:43.827Z,22.54
2019-05-19T05:09:43.746Z,22.64
2019-05-19T05:11:36.831Z,23.06
2019-05-19T05:12:36.565Z,23.44
2019-05-19T05:14:29.562Z,22.86
2019-05-19T05:15:29.500Z,22.48
2019-05-19T05:17:22.198Z,21.70
2019-05-19T05:18:22.233Z,21.45
2019-05-19T05:20:15.109Z,21.19
2019-05-19T05:21:15.010Z,21.53
2019-05-19T05:23:07.992Z,22.56
2019-05-19T05:24:08.281Z,22.63
2019-05-19T05:26:01.140Z,22.06
2019-05-19T05:27:00.927Z,21.68
2019-05-19T05:28:53.750Z,22.33
2019-05-19T05:29:53.679Z,22.60
2019-05-19T05:31:46.809Z,22.99
2019-05-19T05:32:46.593Z,22.60
2019-05-19T05:34:39.530Z,22.42
2019-05-19T05:35:39.546Z,22.14
2019-05-19T05:37:32.217Z,22.54
2019-05-19T05:38:32.098Z,22.70
2019-05-19T05:40:25.005Z,22.69
2019-05-19T05:41:24.962Z,22.74
2019-05-19T05:43:18.230Z,22.31
2019-05-19T05:44:17.947Z,22.24
2019-05-19T05:46:11.192Z,21.89
2019-05-19T05:47:11.304Z,21.89
2019-05-19T05:49:04.360Z,22.06
2019-05-19T05:50:04.235Z,22.01
2019-05-19T05:51:57.231Z,22.24
2019-05-19T05:52:57.085Z,22.20
2019-05-19T05:54:50.541Z,22.20
2019-05-19T05:55:50.786Z,21.98
2019-05-19T05:57:44.206Z,22.24
2019-05-19T05:58:43.684Z,22.42
2019-05-19T06:00:36.605Z,22.14
2019-05-19T06:01:36.338Z,22.48
2019-05-19T06:03:29.192Z,22.56
2019-05-19T06:04:29.540Z,23.11
2019-05-19T06:06:22.359Z,24.49
2019-05-19T06:07:21.974Z,25.34
2019-05-19T06:09:15.588Z,26.87
2019-05-19T06:10:15.412Z,27.50
2019-05-19T06:12:08.335Z,27.06
2019-05-19T06:13:08.156Z,25.98
2019-05-19T06:15:01.430Z,26.36
2019-05-19T06:16:00.970Z,26.93
2019-05-19T06:17:54.090Z,26.75
2019-05-19T06:18:56.709Z,26.72
2019-05-19T06:20:47.927Z,23.71
2019-05-19T06:21:47.565Z,24.18
2019-05-19T06:23:40.602Z,25.54
2019-05-19T06:24:40.467Z,24.19
2019-05-19T06:26:33.331Z,23.63
2019-05-19T06:27:33.182Z,23.68
2019-05-19T06:29:26.148Z,23.32
2019-05-19T06:30:26.118Z,23.38
2019-05-19T06:32:19.029Z,22.48
2019-05-19T06:33:18.963Z,22.78
2019-05-19T06:35:11.874Z,24.14
2019-05-19T06:36:11.693Z,24.14
2019-05-19T06:38:04.541Z,24.48
2019-05-19T06:39:04.956Z,24.39
2019-05-19T06:40:57.382Z,24.06
2019-05-19T06:41:57.213Z,24.36
2019-05-19T06:43:50.335Z,26.86
2019-05-19T06:44:50.120Z,27.66
2019-05-19T06:46:43.092Z,27.76
2019-05-19T06:47:43.216Z,27.34
2019-05-19T06:49:36.184Z,26.88
2019-05-19T06:50:40.228Z,26.87
2019-05-19T06:52:29.215Z,28.21
2019-05-19T06:53:28.848Z,28.89
2019-05-19T06:55:22.063Z,29.78
2019-05-19T06:56:21.961Z,29.81
2019-05-19T06:58:15.025Z,30.93
2019-05-19T06:59:15.262Z,31.59
2019-05-19T07:01:08.090Z,31.68
2019-05-19T07:02:08.045Z,31.57
2019-05-19T07:04:01.217Z,29.29
2019-05-19T07:05:01.060Z,29.47
2019-05-19T07:06:54.181Z,29.05
2019-05-19T07:07:53.781Z,28.94
2019-05-19T07:09:57.955Z,30.21
2019-05-19T07:10:46.570Z,30.53
2019-05-19T07:12:39.683Z,30.88
2019-05-19T07:13:39.640Z,30.81
2019-05-19T07:15:32.416Z,30.03
2019-05-19T07:16:32.508Z,29.47
2019-05-19T07:18:25.229Z,29.14
2019-05-19T07:19:25.131Z,30.15
2019-05-19T07:21:18.428Z,30.01
2019-05-19T07:22:18.295Z,29.70
2019-05-19T07:24:11.179Z,31.22
2019-05-19T07:25:11.084Z,31.91
2019-05-19T07:27:03.989Z,32.85
2019-05-19T07:28:04.125Z,33.33
2019-05-19T07:29:57.016Z,33.22
2019-05-19T07:30:56.700Z,32.84
2019-05-19T07:32:49.589Z,31.74
2019-05-19T07:33:49.510Z,32.13
2019-05-19T07:35:42.556Z,33.02
2019-05-19T07:36:42.702Z,33.45
2019-05-19T07:38:35.484Z,33.82
2019-05-19T07:39:35.422Z,34.24
2019-05-19T07:41:28.316Z,34.23
2019-05-19T07:42:28.146Z,34.33
2019-05-19T07:44:20.978Z,32.02
2019-05-19T07:45:20.957Z,32.46
2019-05-19T07:47:13.717Z,32.85
2019-05-19T07:48:13.650Z,33.22
2019-05-19T07:50:06.897Z,33.24
2019-05-19T07:51:07.132Z,33.70
2019-05-19T07:52:59.701Z,32.16
2019-05-19T07:53:59.798Z,31.90
2019-05-19T07:55:52.660Z,30.26
2019-05-19T07:56:52.574Z,30.21
2019-05-19T07:58:45.445Z,29.55
2019-05-19T07:59:45.258Z,29.99
2019-05-19T08:01:38.344Z,30.49
2019-05-19T08:02:38.597Z,30.97
2019-05-19T08:04:31.252Z,30.97
2019-05-19T08:05:31.199Z,30.96
2019-05-19T08:07:24.163Z,31.10
2019-05-19T08:08:24.176Z,30.64
2019-05-19T08:10:17.142Z,29.99
2019-05-19T08:11:17.100Z,30.22
2019-05-19T08:13:10.056Z,30.48
2019-05-19T08:14:10.044Z,31.00
2019-05-19T08:16:02.956Z,32.47
2019-05-19T08:17:02.860Z,32.32
2019-05-19T08:18:56.665Z,32.95
2019-05-19T08:19:56.913Z,33.26
2019-05-19T08:21:49.478Z,32.43
2019-05-19T08:22:51.392Z,31.90
2019-05-19T08:24:42.602Z,30.93
2019-05-19T08:25:42.464Z,30.72
2019-05-19T08:27:34.974Z,29.42
2019-05-19T08:28:35.198Z,28.67
2019-05-19T08:30:27.869Z,29.05
2019-05-19T08:33:20.816Z,30.48
2019-05-19T08:34:20.692Z,30.46
2019-05-19T08:36:14.012Z,30.81
2019-05-19T08:37:13.314Z,30.61
2019-05-19T08:39:06.284Z,31.67
2019-05-19T08:40:06.451Z,31.01
2019-05-19T08:41:59.540Z,31.87
2019-05-19T08:42:59.544Z,32.24
2019-05-19T08:44:52.465Z,32.14
2019-05-19T08:45:52.618Z,32.39
2019-05-19T08:47:45.566Z,32.56
2019-05-19T08:48:45.408Z,31.35
2019-05-19T08:50:38.695Z,30.01
2019-05-19T08:51:38.505Z,29.67
2019-05-19T08:53:31.520Z,28.72
2019-05-19T08:54:31.407Z,29.86
2019-05-19T08:56:24.553Z,30.32
2019-05-19T08:57:24.314Z,31.07
2019-05-19T08:59:17.374Z,30.56
2019-05-19T09:00:17.210Z,30.53
2019-05-19T09:02:10.396Z,31.42
2019-05-19T09:03:10.503Z,30.78
2019-05-19T09:05:03.354Z,30.29
2019-05-19T09:06:03.205Z,29.39
2019-05-19T09:07:56.198Z,29.66
2019-05-19T09:08:56.123Z,29.25
2019-05-19T09:10:49.042Z,28.61
2019-05-19T09:11:49.448Z,29.23
2019-05-19T09:13:42.390Z,30.98
2019-05-19T09:14:41.802Z,31.00
2019-05-19T09:16:34.776Z,29.94
2019-05-19T09:17:34.769Z,29.95
2019-05-19T09:19:27.789Z,28.70
2019-05-19T09:20:27.652Z,28.88
2019-05-19T09:22:20.500Z,28.32
2019-05-19T09:23:21.040Z,28.52
2019-05-19T09:25:13.313Z,28.30
2019-05-19T09:26:13.330Z,29.30
2019-05-19T09:28:06.349Z,28.88
2019-05-19T09:29:06.015Z,29.20
2019-05-19T09:30:59.293Z,28.98
2019-05-19T09:31:58.794Z,28.80
2019-05-19T09:33:52.351Z,28.58
2019-05-19T09:34:51.882Z,28.82
2019-05-19T09:36:44.836Z,29.36
2019-05-19T09:37:45.259Z,29.25
2019-05-19T09:39:37.904Z,30.60
2019-05-19T09:40:37.852Z,30.57
2019-05-19T09:42:30.505Z,31.10
2019-05-19T09:43:30.485Z,30.78
2019-05-19T09:45:24.072Z,31.91
2019-05-19T09:46:24.182Z,31.46
2019-05-19T09:48:17.166Z,31.71
2019-05-19T09:49:17.240Z,31.71
2019-05-19T09:51:10.369Z,30.86
2019-05-19T09:52:10.294Z,30.79
2019-05-19T09:54:03.135Z,30.54
2019-05-19T09:55:03.091Z,31.31
2019-05-19T09:56:56.184Z,31.90
2019-05-19T09:57:56.054Z,31.82
2019-05-19T09:59:49.093Z,30.54
2019-05-19T10:00:49.162Z,31.16
2019-05-19T10:02:42.074Z,29.71
2019-05-19T10:03:41.853Z,29.02
2019-05-19T10:05:34.782Z,29.69
2019-05-19T10:06:34.714Z,30.56
2019-05-19T10:08:27.949Z,30.68
2019-05-19T10:09:27.701Z,30.68
2019-05-19T10:11:21.446Z,31.62
2019-05-19T10:12:20.829Z,31.35
2019-05-19T10:14:13.579Z,31.67
2019-05-19T10:15:13.538Z,31.60
2019-05-19T10:17:06.526Z,28.89
2019-05-19T10:18:06.481Z,28.32
2019-05-19T10:19:59.340Z,29.17
2019-05-19T10:20:59.296Z,29.71
2019-05-19T10:22:52.234Z,30.44
2019-05-19T10:23:52.166Z,30.63
2019-05-19T10:25:44.990Z,30.68
2019-05-19T10:26:44.910Z,31.30
2019-05-19T10:28:37.984Z,32.14
2019-05-19T10:29:37.799Z,32.09
2019-05-19T10:31:30.822Z,29.88
2019-05-19T10:32:30.618Z,29.88
2019-05-19T10:34:23.406Z,29.66
2019-05-19T10:35:23.391Z,29.49
2019-05-19T10:37:16.902Z,30.59
2019-05-19T10:38:17.914Z,30.26
2019-05-19T10:40:10.719Z,30.36
2019-05-19T10:41:10.448Z,29.71
2019-05-19T10:43:03.971Z,28.50
2019-05-19T10:44:03.593Z,28.62
2019-05-19T10:45:56.882Z,27.66
2019-05-19T10:46:56.746Z,27.99
2019-05-19T10:48:50.798Z,28.72
2019-05-19T10:49:50.713Z,28.30
2019-05-19T10:51:43.605Z,27.06
2019-05-19T10:52:43.658Z,26.91
2019-05-19T10:54:36.350Z,27.28
2019-05-19T10:55:37.102Z,27.42
2019-05-19T10:57:29.749Z,27.65
2019-05-19T10:58:29.404Z,27.55
2019-05-19T11:00:22.560Z,28.06
2019-05-19T11:01:22.078Z,28.20
2019-05-19T11:03:15.301Z,28.28
2019-05-19T11:04:15.586Z,27.72
2019-05-19T11:06:08.932Z,27.58
2019-05-19T11:07:08.202Z,27.66
2019-05-19T11:09:01.829Z,27.76
2019-05-19T11:10:02.170Z,27.53
2019-05-19T11:11:55.746Z,27.33
2019-05-19T11:12:55.434Z,27.27
2019-05-19T11:14:47.729Z,27.55
2019-05-19T11:15:47.542Z,27.65
2019-05-19T11:17:41.348Z,27.63
2019-05-19T11:18:41.336Z,27.83
2019-05-19T11:20:34.064Z,27.78
2019-05-19T11:21:34.061Z,28.08
2019-05-19T11:23:26.944Z,28.01
2019-05-19T11:24:26.931Z,28.06
2019-05-19T11:26:19.758Z,27.99
2019-05-19T11:27:19.646Z,27.88
2019-05-19T11:29:12.822Z,27.38
2019-05-19T11:30:12.960Z,27.55
2019-05-19T11:32:06.171Z,27.96
2019-05-19T11:33:06.110Z,28.13
2019-05-19T11:34:59.481Z,27.99
2019-05-19T11:35:59.065Z,28.02
2019-05-19T11:37:52.373Z,28.14
2019-05-19T11:38:52.108Z,28.18
2019-05-19T11:40:45.052Z,28.43
2019-05-19T11:41:44.917Z,28.40
2019-05-19T11:43:37.965Z,28.21
2019-05-19T11:44:37.929Z,28.23
2019-05-19T11:46:30.936Z,28.35
2019-05-19T11:47:30.883Z,28.33
2019-05-19T11:49:23.774Z,28.01
2019-05-19T11:50:23.594Z,27.78
2019-05-19T11:52:16.895Z,27.83
2019-05-19T11:53:16.842Z,27.59
2019-05-19T11:55:09.989Z,27.50
2019-05-19T11:56:11.537Z,27.33
2019-05-19T11:58:02.846Z,27.06
2019-05-19T11:59:02.589Z,27.16
2019-05-19T12:00:55.561Z,27.06
2019-05-19T12:01:55.413Z,27.02
2019-05-19T12:03:48.438Z,27.16
2019-05-19T12:04:48.109Z,27.16
2019-05-19T12:06:41.045Z,27.33
2019-05-19T12:07:41.057Z,27.39
2019-05-19T12:09:33.949Z,26.91
2019-05-19T12:10:33.724Z,26.59
2019-05-19T12:12:26.830Z,26.73
2019-05-19T12:13:26.723Z,26.81
2019-05-19T12:15:19.332Z,26.75
2019-05-19T12:16:19.704Z,26.72
2019-05-19T12:18:12.345Z,26.81
2019-05-19T12:19:12.156Z,26.87
2019-05-19T12:21:05.082Z,27.25
2019-05-19T12:22:04.962Z,27.48
2019-05-19T12:23:57.859Z,27.49
2019-05-19T12:24:57.769Z,27.55
2019-05-19T12:26:50.926Z,27.59
2019-05-19T12:27:50.584Z,27.13
2019-05-19T12:29:43.543Z,26.34
2019-05-19T12:30:43.423Z,26.12
2019-05-19T12:32:36.635Z,26.23
2019-05-19T12:33:50.799Z,26.49
2019-05-19T12:35:29.154Z,26.86
2019-05-19T12:36:29.409Z,26.97
2019-05-19T12:38:22.152Z,26.87
2019-05-19T12:39:21.979Z,26.97
2019-05-19T12:41:15.055Z,27.18
2019-05-19T12:42:14.913Z,26.71
2019-05-19T12:44:08.121Z,26.69
2019-05-19T12:45:07.833Z,26.66
2019-05-19T12:47:01.036Z,26.41
2019-05-19T12:48:00.943Z,26.47
2019-05-19T12:49:53.944Z,26.65
2019-05-19T12:50:53.862Z,26.76
2019-05-19T12:52:46.674Z,26.73
2019-05-19T12:53:46.665Z,26.64
2019-05-19T12:55:39.496Z,26.11
2019-05-19T12:56:40.307Z,26.20
2019-05-19T12:58:32.346Z,26.64
2019-05-19T12:59:32.234Z,26.87
2019-05-19T13:01:25.186Z,27.20
2019-05-19T13:02:25.044Z,27.24
2019-05-19T13:04:18.042Z,26.76
2019-05-19T13:05:17.817Z,26.76
2019-05-19T13:07:10.728Z,27.03
2019-05-19T13:08:11.617Z,26.69
2019-05-19T13:10:03.590Z,26.66
2019-05-19T13:11:03.397Z,26.68
2019-05-19T13:12:56.434Z,26.34
2019-05-19T13:13:56.390Z,26.34
2019-05-19T13:15:50.563Z,26.34
2019-05-19T13:16:50.394Z,26.24
2019-05-19T13:18:43.338Z,26.29
2019-05-19T13:19:43.209Z,26.19
2019-05-19T13:21:36.351Z,26.46
2019-05-19T13:22:36.276Z,26.71
2019-05-19T13:24:29.760Z,27.05
2019-05-19T13:25:29.487Z,27.03
2019-05-19T13:27:22.679Z,26.90
2019-05-19T13:28:22.722Z,26.97
2019-05-19T13:30:17.119Z,27.20
2019-05-19T13:31:17.305Z,27.21
2019-05-19T13:33:10.110Z,27.16
2019-05-19T13:34:09.972Z,27.03
2019-05-19T13:36:03.987Z,26.46
2019-05-19T13:37:03.675Z,26.34
2019-05-19T13:38:56.733Z,26.20
2019-05-19T13:39:56.373Z,26.23
2019-05-19T13:41:49.204Z,26.34
2019-05-19T13:42:49.190Z,25.79
2019-05-19T13:44:42.338Z,26.04
2019-05-19T13:45:42.349Z,25.98
2019-05-19T13:47:35.505Z,25.69
2019-05-19T13:48:35.596Z,25.83
2019-05-19T13:50:28.316Z,25.96
2019-05-19T13:51:28.152Z,26.20
2019-05-19T13:53:21.475Z,25.97
2019-05-19T13:54:21.338Z,25.82
2019-05-19T13:56:15.647Z,25.75
2019-05-19T13:57:15.558Z,25.66
2019-05-19T13:59:08.307Z,25.71
2019-05-19T14:00:08.234Z,25.75
2019-05-19T14:02:01.153Z,25.64
2019-05-19T14:03:01.481Z,25.59
2019-05-19T14:04:54.485Z,25.64
2019-05-19T14:05:53.918Z,25.51
2019-05-19T14:07:46.709Z,25.44
2019-05-19T14:08:46.686Z,25.41
2019-05-19T14:10:39.487Z,25.27
2019-05-19T14:11:39.450Z,25.22
2019-05-19T14:13:32.270Z,25.46
2019-05-19T14:14:32.182Z,25.54
2019-05-19T14:16:25.294Z,25.63
2019-05-19T14:17:25.088Z,25.60
2019-05-19T14:19:18.043Z,25.57
2019-05-19T14:20:18.070Z,25.48
2019-05-19T14:22:10.894Z,25.51
2019-05-19T14:23:11.013Z,25.54
2019-05-19T14:25:03.867Z,25.46
2019-05-19T14:26:03.760Z,25.39
2019-05-19T14:27:56.659Z,25.29
2019-05-19T14:28:56.675Z,25.11
2019-05-19T14:30:49.445Z,24.98
2019-05-19T14:31:49.374Z,24.87
2019-05-19T14:33:42.283Z,24.70
2019-05-19T14:34:42.227Z,24.64
2019-05-19T14:36:35.117Z,24.77
2019-05-19T14:37:34.951Z,24.67
2019-05-19T14:39:28.313Z,24.77
2019-05-19T14:40:27.784Z,24.79
2019-05-19T14:42:20.799Z,24.93
2019-05-19T14:43:20.595Z,24.99
2019-05-19T14:45:13.447Z,25.14
2019-05-19T14:46:13.340Z,25.27
2019-05-19T14:48:06.322Z,25.41
2019-05-19T14:49:06.262Z,25.31
2019-05-19T14:50:59.330Z,25.29
2019-05-19T14:51:59.571Z,25.27
2019-05-19T14:53:52.067Z,25.44
2019-05-19T14:54:51.932Z,25.64
2019-05-19T14:56:44.932Z,25.85
2019-05-19T14:57:45.765Z,25.81
2019-05-19T14:59:38.090Z,25.98
2019-05-19T15:00:37.848Z,26.09
2019-05-19T15:02:31.175Z,25.97
2019-05-19T15:03:31.031Z,25.81
2019-05-19T15:05:24.397Z,25.89
2019-05-19T15:06:23.842Z,25.98
2019-05-19T15:08:16.752Z,25.94
2019-05-19T15:09:16.573Z,25.81
2019-05-19T15:11:09.811Z,25.46
2019-05-19T15:12:09.457Z,25.42
2019-05-19T15:14:02.334Z,25.35
2019-05-19T15:15:02.170Z,25.44
2019-05-19T15:16:55.005Z,25.59
2019-05-19T15:17:54.968Z,25.69
2019-05-19T15:19:47.792Z,25.66
2019-05-19T15:20:47.745Z,25.82
2019-05-19T15:22:40.536Z,25.51
2019-05-19T15:23:40.420Z,25.23
2019-05-19T15:25:33.497Z,24.93
2019-05-19T15:26:33.363Z,24.93
2019-05-19T15:28:26.307Z,24.82
2019-05-19T15:29:26.202Z,24.77
2019-05-19T15:31:20.064Z,24.90
2019-05-19T15:32:19.984Z,24.86
2019-05-19T15:34:12.925Z,24.98
2019-05-19T15:35:12.704Z,25.09
2019-05-19T15:37:06.070Z,25.04
2019-05-19T15:38:05.750Z,25.05
2019-05-19T15:39:58.854Z,25.07
2019-05-19T15:40:58.733Z,24.90
2019-05-19T15:42:51.516Z,24.94
2019-05-19T15:43:51.477Z,24.89
2019-05-19T15:45:44.950Z,24.77
2019-05-19T15:46:44.669Z,24.89
2019-05-19T15:48:37.478Z,24.87
2019-05-19T15:49:37.434Z,24.99
2019-05-19T15:51:37.171Z,24.97
2019-05-19T15:52:30.277Z,24.99
2019-05-19T15:54:23.035Z,24.84
2019-05-19T15:55:22.959Z,24.86
2019-05-19T15:57:16.015Z,24.93
2019-05-19T15:58:17.052Z,24.90
2019-05-19T16:00:08.758Z,24.79
2019-05-19T16:01:08.565Z,24.68
2019-05-19T16:03:01.524Z,24.68
2019-05-19T16:04:01.491Z,24.75
2019-05-19T16:05:54.639Z,24.75
2019-05-19T16:06:54.401Z,24.66
2019-05-19T16:08:47.339Z,24.46
2019-05-19T16:09:47.222Z,24.53
2019-05-19T16:11:40.412Z,24.49
2019-05-19T16:12:40.186Z,24.55
2019-05-19T16:14:33.141Z,24.44
2019-05-19T16:15:33.094Z,24.34
2019-05-19T16:17:26.073Z,24.27
2019-05-19T16:18:25.876Z,24.27
2019-05-19T16:20:18.804Z,24.29
2019-05-19T16:21:18.699Z,24.27
2019-05-19T16:23:11.982Z,24.31
2019-05-19T16:24:11.940Z,24.33
2019-05-19T16:26:05.322Z,24.33
2019-05-19T16:27:05.149Z,24.23
2019-05-19T16:28:58.444Z,24.09
2019-05-19T16:29:58.330Z,24.19
2019-05-19T16:31:51.257Z,24.18
2019-05-19T16:32:51.179Z,24.29
2019-05-19T16:34:44.549Z,24.15
2019-05-19T16:35:44.566Z,24.26
2019-05-19T16:37:37.376Z,24.23
2019-05-19T16:38:37.083Z,24.14
2019-05-19T16:40:30.262Z,24.14
2019-05-19T16:41:30.155Z,24.18
2019-05-19T16:43:23.780Z,24.16
2019-05-19T16:44:23.356Z,24.11
2019-05-19T16:46:16.239Z,23.93
2019-05-19T16:47:16.151Z,23.93
2019-05-19T16:49:09.437Z,23.87
2019-05-19T16:50:09.397Z,23.82
2019-05-19T16:52:02.634Z,23.78
2019-05-19T16:53:02.396Z,23.81
2019-05-19T16:54:56.114Z,23.82
2019-05-19T16:55:55.383Z,23.69
2019-05-19T16:57:48.458Z,23.75
2019-05-19T16:58:48.506Z,23.67
2019-05-19T17:00:41.505Z,23.59
2019-05-19T17:01:41.339Z,23.64
2019-05-19T17:03:36.364Z,23.57
2019-05-19T17:04:34.445Z,23.47
2019-05-19T17:06:27.518Z,23.56
2019-05-19T17:07:27.685Z,23.63
2019-05-19T17:09:21.159Z,23.45
2019-05-19T17:10:20.465Z,23.42
2019-05-19T17:12:13.419Z,23.39
2019-05-19T17:13:13.331Z,23.47
2019-05-19T17:15:06.665Z,23.44
2019-05-19T17:16:06.282Z,23.39
2019-05-19T17:17:59.147Z,23.38
2019-05-19T17:18:58.996Z,23.38
2019-05-19T17:20:51.776Z,23.22
2019-05-19T17:21:52.280Z,23.25
2019-05-19T17:23:44.691Z,23.23
2019-05-19T17:24:44.847Z,23.26
2019-05-19T17:26:37.839Z,23.21
2019-05-19T17:27:37.825Z,23.23
2019-05-19T17:29:30.832Z,23.11
2019-05-19T17:30:30.658Z,23.12
2019-05-19T17:32:23.667Z,23.15
2019-05-19T17:33:23.600Z,23.15
2019-05-19T17:35:16.480Z,23.07
2019-05-19T17:36:16.460Z,23.06
2019-05-19T17:38:09.424Z,23.06
2019-05-19T17:39:09.289Z,23.09
2019-05-19T17:41:02.340Z,23.06
2019-05-19T17:42:02.258Z,23.00
2019-05-19T17:43:55.087Z,23.04
2019-05-19T17:44:54.987Z,23.03
2019-05-19T17:46:47.818Z,23.04
2019-05-19T17:47:47.717Z,23.04
2019-05-19T17:49:40.550Z,23.07
2019-05-19T17:50:40.467Z,23.03
2019-05-19T17:52:33.258Z,23.03
2019-05-19T17:53:33.182Z,22.99
2019-05-19T17:55:26.090Z,23.04
2019-05-19T17:56:25.950Z,23.07
2019-05-19T17:58:18.758Z,23.04
2019-05-19T17:59:18.689Z,22.99
2019-05-19T18:01:11.512Z,22.99
2019-05-19T18:02:11.446Z,22.89
2019-05-19T18:04:04.289Z,22.86
2019-05-19T18:05:04.150Z,22.82
2019-05-19T18:06:56.939Z,22.94
2019-05-19T18:07:56.868Z,22.82
2019-05-19T18:09:49.938Z,22.84
2019-05-19T18:10:50.305Z,22.88
2019-05-19T18:12:42.941Z,22.74
2019-05-19T18:13:43.514Z,22.74
2019-05-19T18:15:36.024Z,22.75
2019-05-19T18:16:35.768Z,22.63
2019-05-19T18:18:29.110Z,22.66
2019-05-19T18:19:29.315Z,22.61
2019-05-19T18:21:21.932Z,22.61
2019-05-19T18:22:22.491Z,22.59
2019-05-19T18:24:15.635Z,22.59
2019-05-19T18:25:15.215Z,22.51
2019-05-19T18:27:08.251Z,22.52
2019-05-19T18:28:08.619Z,22.41
2019-05-19T18:30:01.054Z,22.49
2019-05-19T18:31:01.013Z,22.41
2019-05-19T18:32:54.806Z,22.49
2019-05-19T18:33:53.882Z,22.41
2019-05-19T18:35:46.855Z,22.33